sensor_id;sensor_type;location;lat;lon;timestamp;P1;durP1;ratioP1;P2;durP2;ratioP2
75285;SDS011;63879;46.064;14.532;2023-11-19T07:01:52;8.00;;;4.20;;
75285;SDS011;63879;46.064;14.532;2023-11-19T07:04:17;7.97;;;6.43;;
75285;SDS011;63879;46.064;14.532;2023-11-19T07:06:43;8.05;;;5.43;;
75285;SDS011;63879;46.064;14.532;2023-11-19T07:09:09;7.82;;;5.13;;
75285;SDS011;63879;46.064;14.532;2023-11-19T07:11:38;9.90;;;6.72;;
75285;SDS011;63879;46.064;14.532;2023-11-19T07:14:04;9.52;;;5.25;;
75285;SDS011;63879;46.064;14.532;2023-11-19T07:16:31;10.95;;;6.43;;
75285;SDS011;63879;46.064;14.532;2023-11-19T07:19:03;10.02;;;5.38;;
75285;SDS011;63879;46.064;14.532;2023-11-19T07:21:30;6.97;;;5.93;;
75285;SDS011;63879;46.064;14.532;2023-11-19T07:23:55;7.25;;;5.68;;
75285;SDS011;63879;46.064;14.532;2023-11-19T07:26:21;8.55;;;5.53;;
75285;SDS011;63879;46.064;14.532;2023-11-19T07:28:48;9.05;;;8.15;;
75285;SDS011;63879;46.064;14.532;2023-11-19T07:31:13;8.35;;;5.55;;
75285;SDS011;63879;46.064;14.532;2023-11-19T07:33:39;8.27;;;4.72;;
75285;SDS011;63879;46.064;14.532;2023-11-19T07:38:32;11.85;;;4.78;;
75285;SDS011;63879;46.064;14.532;2023-11-19T07:40:58;10.75;;;5.82;;
75285;SDS011;63879;46.064;14.532;2023-11-19T07:43:24;8.20;;;5.43;;
75285;SDS011;63879;46.064;14.532;2023-11-19T07:45:49;8.52;;;4.45;;
75285;SDS011;63879;46.064;14.532;2023-11-19T07:48:14;10.30;;;7.53;;
75285;SDS011;63879;46.064;14.532;2023-11-19T07:50:40;6.68;;;4.30;;
75285;SDS011;63879;46.064;14.532;2023-11-19T07:53:06;8.60;;;7.75;;
75285;SDS011;63879;46.064;14.532;2023-11-19T07:55:32;10.18;;;5.38;;
75285;SDS011;63879;46.064;14.532;2023-11-19T07:57:58;8.75;;;5.20;;
75285;SDS011;63879;46.064;14.532;2023-11-19T08:00:24;8.48;;;5.05;;
75285;SDS011;63879;46.064;14.532;2023-11-19T08:02:49;10.77;;;6.65;;
75285;SDS011;63879;46.064;14.532;2023-11-19T08:05:14;9.60;;;6.47;;
75285;SDS011;63879;46.064;14.532;2023-11-19T08:07:40;11.38;;;7.50;;
75285;SDS011;63879;46.064;14.532;2023-11-19T08:10:06;7.10;;;5.53;;
75285;SDS011;63879;46.064;14.532;2023-11-19T08:12:34;10.30;;;6.30;;
75285;SDS011;63879;46.064;14.532;2023-11-19T08:15:01;10.10;;;8.20;;
75285;SDS011;63879;46.064;14.532;2023-11-19T08:17:27;11.35;;;6.70;;
75285;SDS011;63879;46.064;14.532;2023-11-19T08:19:53;8.75;;;6.85;;
75285;SDS011;63879;46.064;14.532;2023-11-19T08:22:18;7.88;;;4.93;;
75285;SDS011;63879;46.064;14.532;2023-11-19T08:24:44;8.85;;;4.72;;
75285;SDS011;63879;46.064;14.532;2023-11-19T08:27:09;7.53;;;5.60;;
75285;SDS011;63879;46.064;14.532;2023-11-19T08:29:35;9.50;;;5.75;;
75285;SDS011;63879;46.064;14.532;2023-11-19T08:32:01;10.52;;;5.97;;
75285;SDS011;63879;46.064;14.532;2023-11-19T08:34:29;9.13;;;5.90;;
75285;SDS011;63879;46.064;14.532;2023-11-19T08:36:55;8.10;;;6.22;;
75285;SDS011;63879;46.064;14.532;2023-11-19T08:39:20;9.55;;;6.32;;
75285;SDS011;63879;46.064;14.532;2023-11-19T08:41:46;7.78;;;6.00;;
75285;SDS011;63879;46.064;14.532;2023-11-19T08:44:16;9.98;;;6.32;;
75285;SDS011;63879;46.064;14.532;2023-11-19T08:46:59;13.52;;;7.63;;
75285;SDS011;63879;46.064;14.532;2023-11-19T08:49:25;6.80;;;5.57;;
75285;SDS011;63879;46.064;14.532;2023-11-19T08:51:51;6.30;;;5.15;;
75285;SDS011;63879;46.064;14.532;2023-11-19T08:54:16;12.25;;;5.80;;
75285;SDS011;63879;46.064;14.532;2023-11-19T08:56:42;9.45;;;5.57;;
75285;SDS011;63879;46.064;14.532;2023-11-19T08:59:07;12.45;;;6.05;;
75285;SDS011;63879;46.064;14.532;2023-11-19T09:01:33;10.80;;;7.03;;
75285;SDS011;63879;46.064;14.532;2023-11-19T09:03:59;6.72;;;4.40;;
75285;SDS011;63879;46.064;14.532;2023-11-19T09:06:24;8.23;;;6.88;;
75285;SDS011;63879;46.064;14.532;2023-11-19T09:08:50;12.45;;;6.78;;
75285;SDS011;63879;46.064;14.532;2023-11-19T09:11:16;8.10;;;6.70;;
75285;SDS011;63879;46.064;14.532;2023-11-19T09:13:41;10.73;;;8.02;;
75285;SDS011;63879;46.064;14.532;2023-11-19T09:16:07;8.13;;;5.07;;
75285;SDS011;63879;46.064;14.532;2023-11-19T09:18:34;9.85;;;5.90;;
75285;SDS011;63879;46.064;14.532;2023-11-19T09:21:00;6.93;;;4.90;;
75285;SDS011;63879;46.064;14.532;2023-11-19T09:23:25;7.53;;;6.75;;
75285;SDS011;63879;46.064;14.532;2023-11-19T09:25:52;9.18;;;6.57;;
75285;SDS011;63879;46.064;14.532;2023-11-19T09:28:18;11.25;;;7.55;;
75285;SDS011;63879;46.064;14.532;2023-11-19T09:30:43;10.10;;;7.13;;
75285;SDS011;63879;46.064;14.532;2023-11-19T09:33:09;8.20;;;6.60;;
75285;SDS011;63879;46.064;14.532;2023-11-19T09:35:34;9.82;;;6.72;;
75285;SDS011;63879;46.064;14.532;2023-11-19T09:38:00;8.25;;;5.47;;
75285;SDS011;63879;46.064;14.532;2023-11-19T09:40:25;9.75;;;5.97;;
75285;SDS011;63879;46.064;14.532;2023-11-19T09:42:51;10.00;;;4.65;;
75285;SDS011;63879;46.064;14.532;2023-11-19T09:45:17;8.60;;;6.22;;
75285;SDS011;63879;46.064;14.532;2023-11-19T09:47:46;11.00;;;5.40;;
75285;SDS011;63879;46.064;14.532;2023-11-19T09:50:18;7.07;;;4.93;;
75285;SDS011;63879;46.064;14.532;2023-11-19T09:52:44;7.50;;;5.55;;
75285;SDS011;63879;46.064;14.532;2023-11-19T09:55:10;6.13;;;4.57;;
75285;SDS011;63879;46.064;14.532;2023-11-19T09:57:37;8.95;;;6.15;;
75285;SDS011;63879;46.064;14.532;2023-11-19T10:00:03;7.75;;;5.35;;
75285;SDS011;63879;46.064;14.532;2023-11-19T10:02:33;6.63;;;4.75;;
75285;SDS011;63879;46.064;14.532;2023-11-19T10:05:01;4.72;;;3.88;;
75285;SDS011;63879;46.064;14.532;2023-11-19T10:07:30;5.38;;;3.83;;
75285;SDS011;63879;46.064;14.532;2023-11-19T10:09:58;6.70;;;4.65;;
75285;SDS011;63879;46.064;14.532;2023-11-19T10:12:25;6.88;;;4.95;;
75285;SDS011;63879;46.064;14.532;2023-11-19T10:14:51;12.23;;;5.30;;
75285;SDS011;63879;46.064;14.532;2023-11-19T10:17:17;4.65;;;4.25;;
75285;SDS011;63879;46.064;14.532;2023-11-19T10:19:42;6.50;;;4.78;;
75285;SDS011;63879;46.064;14.532;2023-11-19T10:22:08;6.18;;;4.10;;
75285;SDS011;63879;46.064;14.532;2023-11-19T10:24:33;8.35;;;4.93;;
75285;SDS011;63879;46.064;14.532;2023-11-19T10:27:00;8.27;;;4.65;;
75285;SDS011;63879;46.064;14.532;2023-11-19T10:31:57;5.80;;;5.03;;
75285;SDS011;63879;46.064;14.532;2023-11-19T10:34:26;6.20;;;5.45;;
75285;SDS011;63879;46.064;14.532;2023-11-19T10:36:52;7.53;;;5.05;;
75285;SDS011;63879;46.064;14.532;2023-11-19T10:39:17;6.95;;;5.07;;
75285;SDS011;63879;46.064;14.532;2023-11-19T10:41:43;7.80;;;7.20;;
75285;SDS011;63879;46.064;14.532;2023-11-19T10:44:09;6.47;;;4.07;;
75285;SDS011;63879;46.064;14.532;2023-11-19T10:46:41;5.53;;;3.85;;
75285;SDS011;63879;46.064;14.532;2023-11-19T10:49:07;5.85;;;3.80;;
75285;SDS011;63879;46.064;14.532;2023-11-19T10:51:33;8.43;;;4.80;;
75285;SDS011;63879;46.064;14.532;2023-11-19T10:54:01;7.25;;;3.85;;
75285;SDS011;63879;46.064;14.532;2023-11-19T10:56:30;7.15;;;3.60;;
75285;SDS011;63879;46.064;14.532;2023-11-19T10:58:57;5.60;;;3.67;;
75285;SDS011;63879;46.064;14.532;2023-11-19T11:01:26;6.43;;;4.82;;
75285;SDS011;63879;46.064;14.532;2023-11-19T11:03:55;4.88;;;3.55;;
75285;SDS011;63879;46.064;14.532;2023-11-19T11:06:24;6.68;;;3.60;;
75285;SDS011;63879;46.064;14.532;2023-11-19T11:08:51;5.93;;;3.72;;
75285;SDS011;63879;46.064;14.532;2023-11-19T11:11:17;5.47;;;4.25;;
75285;SDS011;63879;46.064;14.532;2023-11-19T11:13:46;6.45;;;3.75;;
75285;SDS011;63879;46.064;14.532;2023-11-19T11:16:12;4.85;;;3.28;;
75285;SDS011;63879;46.064;14.532;2023-11-19T11:18:38;3.55;;;2.65;;
75285;SDS011;63879;46.064;14.532;2023-11-19T11:21:08;5.93;;;3.10;;
75285;SDS011;63879;46.064;14.532;2023-11-19T11:29:05;4.63;;;4.05;;
75285;SDS011;63879;46.064;14.532;2023-11-19T11:34:29;5.03;;;3.85;;
75285;SDS011;63879;46.064;14.532;2023-11-19T11:37:26;9.35;;;3.65;;
75285;SDS011;63879;46.064;14.532;2023-11-19T11:39:59;5.60;;;4.03;;
75285;SDS011;63879;46.064;14.532;2023-11-19T11:42:30;5.78;;;4.75;;
75285;SDS011;63879;46.064;14.532;2023-11-19T11:44:59;7.97;;;5.25;;
75285;SDS011;63879;46.064;14.532;2023-11-19T11:47:25;7.45;;;4.82;;
75285;SDS011;63879;46.064;14.532;2023-11-19T11:49:51;3.50;;;2.97;;
75285;SDS011;63879;46.064;14.532;2023-11-19T11:52:17;6.20;;;4.28;;
75285;SDS011;63879;46.064;14.532;2023-11-19T11:54:43;4.63;;;4.13;;
75285;SDS011;63879;46.064;14.532;2023-11-19T11:57:13;5.97;;;4.32;;
75285;SDS011;63879;46.064;14.532;2023-11-19T12:02:10;4.40;;;4.00;;
75285;SDS011;63879;46.064;14.532;2023-11-19T12:04:47;4.95;;;3.97;;
75285;SDS011;63879;46.064;14.532;2023-11-19T12:07:20;8.00;;;4.35;;
75285;SDS011;63879;46.064;14.532;2023-11-19T12:10:08;5.65;;;3.97;;
75285;SDS011;63879;46.064;14.532;2023-11-19T12:12:33;8.57;;;5.35;;
75285;SDS011;63879;46.064;14.532;2023-11-19T12:19:59;5.10;;;3.97;;
75285;SDS011;63879;46.064;14.532;2023-11-19T12:22:28;7.95;;;5.53;;
75285;SDS011;63879;46.064;14.532;2023-11-19T12:24:53;6.32;;;4.85;;
75285;SDS011;63879;46.064;14.532;2023-11-19T12:27:19;7.43;;;5.07;;
75285;SDS011;63879;46.064;14.532;2023-11-19T12:29:47;8.65;;;5.25;;
75285;SDS011;63879;46.064;14.532;2023-11-19T12:32:13;6.40;;;4.65;;
75285;SDS011;63879;46.064;14.532;2023-11-19T12:34:38;6.05;;;4.55;;
75285;SDS011;63879;46.064;14.532;2023-11-19T12:37:04;5.88;;;4.47;;
75285;SDS011;63879;46.064;14.532;2023-11-19T12:39:30;6.72;;;5.63;;
75285;SDS011;63879;46.064;14.532;2023-11-19T12:41:56;5.70;;;4.55;;
75285;SDS011;63879;46.064;14.532;2023-11-19T12:46:59;7.13;;;5.23;;
75285;SDS011;63879;46.064;14.532;2023-11-19T12:49:26;7.88;;;5.85;;
75285;SDS011;63879;46.064;14.532;2023-11-19T12:51:52;9.38;;;6.95;;
75285;SDS011;63879;46.064;14.532;2023-11-19T12:54:17;7.75;;;5.70;;
75285;SDS011;63879;46.064;14.532;2023-11-19T12:56:52;9.43;;;5.22;;
75285;SDS011;63879;46.064;14.532;2023-11-19T12:59:18;7.80;;;4.50;;
75285;SDS011;63879;46.064;14.532;2023-11-19T13:01:59;7.32;;;5.80;;
75285;SDS011;63879;46.064;14.532;2023-11-19T13:04:28;7.68;;;5.35;;
75285;SDS011;63879;46.064;14.532;2023-11-19T13:06:55;7.88;;;6.82;;
75285;SDS011;63879;46.064;14.532;2023-11-19T13:09:31;9.55;;;5.40;;
75285;SDS011;63879;46.064;14.532;2023-11-19T13:11:56;8.82;;;4.90;;
75285;SDS011;63879;46.064;14.532;2023-11-19T13:14:22;10.70;;;5.18;;
75285;SDS011;63879;46.064;14.532;2023-11-19T13:16:48;8.07;;;4.53;;
75285;SDS011;63879;46.064;14.532;2023-11-19T13:19:17;7.32;;;4.47;;
75285;SDS011;63879;46.064;14.532;2023-11-19T13:21:44;7.82;;;4.75;;
75285;SDS011;63879;46.064;14.532;2023-11-19T13:24:12;9.90;;;5.13;;
75285;SDS011;63879;46.064;14.532;2023-11-19T13:26:38;9.65;;;6.13;;
75285;SDS011;63879;46.064;14.532;2023-11-19T13:29:03;6.80;;;4.47;;
75285;SDS011;63879;46.064;14.532;2023-11-19T13:31:29;8.45;;;4.80;;
75285;SDS011;63879;46.064;14.532;2023-11-19T13:33:55;7.03;;;5.13;;
75285;SDS011;63879;46.064;14.532;2023-11-19T13:36:20;6.88;;;5.28;;
75285;SDS011;63879;46.064;14.532;2023-11-19T13:38:46;8.05;;;5.15;;
75285;SDS011;63879;46.064;14.532;2023-11-19T13:41:12;8.55;;;5.32;;
75285;SDS011;63879;46.064;14.532;2023-11-19T13:43:38;6.65;;;4.07;;
75285;SDS011;63879;46.064;14.532;2023-11-19T13:46:04;7.70;;;4.22;;
75285;SDS011;63879;46.064;14.532;2023-11-19T13:48:30;8.48;;;4.57;;
75285;SDS011;63879;46.064;14.532;2023-11-19T13:50:56;8.13;;;4.90;;
75285;SDS011;63879;46.064;14.532;2023-11-19T13:53:21;5.18;;;3.95;;
75285;SDS011;63879;46.064;14.532;2023-11-19T13:55:48;8.18;;;4.55;;
75285;SDS011;63879;46.064;14.532;2023-11-19T13:58:14;4.80;;;3.47;;
75285;SDS011;63879;46.064;14.532;2023-11-19T14:00:39;7.75;;;4.57;;
75285;SDS011;63879;46.064;14.532;2023-11-19T14:03:07;7.72;;;4.45;;
75285;SDS011;63879;46.064;14.532;2023-11-19T14:05:32;5.65;;;4.10;;
75285;SDS011;63879;46.064;14.532;2023-11-19T14:07:57;6.43;;;4.13;;
75285;SDS011;63879;46.064;14.532;2023-11-19T14:10:23;7.05;;;3.60;;
75285;SDS011;63879;46.064;14.532;2023-11-19T14:12:48;8.63;;;4.30;;
75285;SDS011;63879;46.064;14.532;2023-11-19T14:15:15;7.55;;;6.05;;
75285;SDS011;63879;46.064;14.532;2023-11-19T14:17:42;8.60;;;4.93;;
75285;SDS011;63879;46.064;14.532;2023-11-19T14:20:08;6.25;;;3.70;;
75285;SDS011;63879;46.064;14.532;2023-11-19T14:22:41;6.75;;;3.67;;
75285;SDS011;63879;46.064;14.532;2023-11-19T14:25:08;9.15;;;4.43;;
75285;SDS011;63879;46.064;14.532;2023-11-19T14:27:42;7.68;;;4.10;;
75285;SDS011;63879;46.064;14.532;2023-11-19T14:30:08;7.45;;;4.22;;
75285;SDS011;63879;46.064;14.532;2023-11-19T14:32:37;6.30;;;4.45;;
75285;SDS011;63879;46.064;14.532;2023-11-19T14:35:06;4.47;;;3.80;;
75285;SDS011;63879;46.064;14.532;2023-11-19T14:37:32;5.90;;;3.83;;
75285;SDS011;63879;46.064;14.532;2023-11-19T14:39:58;7.95;;;5.53;;
75285;SDS011;63879;46.064;14.532;2023-11-19T14:42:24;5.35;;;4.07;;
75285;SDS011;63879;46.064;14.532;2023-11-19T14:44:50;6.20;;;4.50;;
75285;SDS011;63879;46.064;14.532;2023-11-19T14:47:22;5.63;;;4.45;;
75285;SDS011;63879;46.064;14.532;2023-11-19T14:49:48;8.07;;;5.95;;
75285;SDS011;63879;46.064;14.532;2023-11-19T14:52:13;6.68;;;3.35;;
75285;SDS011;63879;46.064;14.532;2023-11-19T14:54:39;7.68;;;3.80;;
75285;SDS011;63879;46.064;14.532;2023-11-19T14:57:05;6.50;;;3.95;;
75285;SDS011;63879;46.064;14.532;2023-11-19T14:59:33;5.97;;;3.53;;
75285;SDS011;63879;46.064;14.532;2023-11-19T15:01:58;2.83;;;2.63;;
75285;SDS011;63879;46.064;14.532;2023-11-19T15:04:25;2.33;;;1.17;;
75285;SDS011;63879;46.064;14.532;2023-11-19T15:06:51;1.27;;;1.15;;
75285;SDS011;63879;46.064;14.532;2023-11-19T15:09:17;1.30;;;1.20;;
75285;SDS011;63879;46.064;14.532;2023-11-19T15:11:43;2.40;;;0.95;;
75285;SDS011;63879;46.064;14.532;2023-11-19T15:14:11;1.58;;;1.40;;
75285;SDS011;63879;46.064;14.532;2023-11-19T15:16:40;1.48;;;1.13;;
75285;SDS011;63879;46.064;14.532;2023-11-19T15:19:05;2.00;;;1.60;;
75285;SDS011;63879;46.064;14.532;2023-11-19T15:21:32;1.67;;;1.42;;
75285;SDS011;63879;46.064;14.532;2023-11-19T15:23:57;1.23;;;1.05;;
75285;SDS011;63879;46.064;14.532;2023-11-19T15:26:23;1.98;;;1.10;;
75285;SDS011;63879;46.064;14.532;2023-11-19T15:28:48;1.45;;;1.27;;
75285;SDS011;63879;46.064;14.532;2023-11-19T15:31:13;1.48;;;1.10;;
75285;SDS011;63879;46.064;14.532;2023-11-19T15:33:41;2.45;;;1.67;;
75285;SDS011;63879;46.064;14.532;2023-11-19T15:36:07;1.88;;;1.30;;
75285;SDS011;63879;46.064;14.532;2023-11-19T15:38:33;1.55;;;0.80;;
75285;SDS011;63879;46.064;14.532;2023-11-19T15:40:59;1.67;;;1.20;;
75285;SDS011;63879;46.064;14.532;2023-11-19T15:43:24;1.17;;;1.02;;
75285;SDS011;63879;46.064;14.532;2023-11-19T15:45:50;3.45;;;3.25;;
75285;SDS011;63879;46.064;14.532;2023-11-19T15:48:15;1.80;;;1.58;;
75285;SDS011;63879;46.064;14.532;2023-11-19T15:50:41;3.30;;;1.17;;
75285;SDS011;63879;46.064;14.532;2023-11-19T15:53:09;3.10;;;1.70;;
75285;SDS011;63879;46.064;14.532;2023-11-19T15:55:35;7.35;;;2.20;;
75285;SDS011;63879;46.064;14.532;2023-11-19T15:58:00;2.03;;;1.48;;
75285;SDS011;63879;46.064;14.532;2023-11-19T16:00:26;1.90;;;1.45;;
75285;SDS011;63879;46.064;14.532;2023-11-19T16:02:51;2.00;;;1.20;;
75285;SDS011;63879;46.064;14.532;2023-11-19T16:05:18;1.50;;;1.20;;
75285;SDS011;63879;46.064;14.532;2023-11-19T16:07:44;2.50;;;1.67;;
75285;SDS011;63879;46.064;14.532;2023-11-19T16:10:09;2.00;;;1.00;;
75285;SDS011;63879;46.064;14.532;2023-11-19T16:12:37;2.33;;;1.73;;
75285;SDS011;63879;46.064;14.532;2023-11-19T16:15:03;3.53;;;1.77;;
75285;SDS011;63879;46.064;14.532;2023-11-19T16:17:29;2.55;;;2.28;;
75285;SDS011;63879;46.064;14.532;2023-11-19T16:19:55;2.13;;;1.83;;
75285;SDS011;63879;46.064;14.532;2023-11-19T16:22:20;3.47;;;3.00;;
75285;SDS011;63879;46.064;14.532;2023-11-19T16:24:46;3.67;;;2.50;;
75285;SDS011;63879;46.064;14.532;2023-11-19T16:27:13;3.20;;;3.00;;
75285;SDS011;63879;46.064;14.532;2023-11-19T16:29:39;2.40;;;1.95;;
75285;SDS011;63879;46.064;14.532;2023-11-19T16:32:05;3.53;;;1.40;;
75285;SDS011;63879;46.064;14.532;2023-11-19T16:34:31;2.75;;;2.42;;
75285;SDS011;63879;46.064;14.532;2023-11-19T16:37:02;3.17;;;2.42;;
75285;SDS011;63879;46.064;14.532;2023-11-19T16:39:29;3.10;;;2.65;;
75285;SDS011;63879;46.064;14.532;2023-11-19T16:41:55;4.45;;;3.30;;
75285;SDS011;63879;46.064;14.532;2023-11-19T16:44:22;2.15;;;1.95;;
75285;SDS011;63879;46.064;14.532;2023-11-19T16:46:47;2.55;;;2.28;;
75285;SDS011;63879;46.064;14.532;2023-11-19T16:49:13;3.90;;;1.92;;
75285;SDS011;63879;46.064;14.532;2023-11-19T16:51:38;3.60;;;2.15;;
75285;SDS011;63879;46.064;14.532;2023-11-19T16:54:04;3.10;;;2.80;;
75285;SDS011;63879;46.064;14.532;2023-11-19T16:56:30;4.93;;;4.53;;
75285;SDS011;63879;46.064;14.532;2023-11-19T16:58:59;3.13;;;2.53;;
75285;SDS011;63879;46.064;14.532;2023-11-19T17:01:25;5.13;;;2.22;;
75285;SDS011;63879;46.064;14.532;2023-11-19T17:03:50;5.13;;;2.35;;
75285;SDS011;63879;46.064;14.532;2023-11-19T17:06:16;3.45;;;2.15;;
75285;SDS011;63879;46.064;14.532;2023-11-19T17:08:42;2.42;;;2.22;;
75285;SDS011;63879;46.064;14.532;2023-11-19T17:11:08;2.38;;;2.17;;
75285;SDS011;63879;46.064;14.532;2023-11-19T17:13:34;2.47;;;2.17;;
75285;SDS011;63879;46.064;14.532;2023-11-19T17:16:00;4.75;;;2.72;;
75285;SDS011;63879;46.064;14.532;2023-11-19T17:18:26;3.85;;;2.47;;
75285;SDS011;63879;46.064;14.532;2023-11-19T17:20:51;3.67;;;3.10;;
75285;SDS011;63879;46.064;14.532;2023-11-19T17:23:23;3.60;;;2.78;;
75285;SDS011;63879;46.064;14.532;2023-11-19T17:25:48;5.45;;;3.10;;
75285;SDS011;63879;46.064;14.532;2023-11-19T17:28:26;5.38;;;2.85;;
75285;SDS011;63879;46.064;14.532;2023-11-19T17:31:07;3.78;;;3.20;;
75285;SDS011;63879;46.064;14.532;2023-11-19T17:33:33;3.42;;;2.75;;
75285;SDS011;63879;46.064;14.532;2023-11-19T17:35:58;3.40;;;3.10;;
75285;SDS011;63879;46.064;14.532;2023-11-19T17:38:26;5.35;;;2.55;;
75285;SDS011;63879;46.064;14.532;2023-11-19T17:40:52;3.85;;;2.42;;
75285;SDS011;63879;46.064;14.532;2023-11-19T17:43:26;2.75;;;2.08;;
75285;SDS011;63879;46.064;14.532;2023-11-19T17:45:52;5.22;;;3.20;;
75285;SDS011;63879;46.064;14.532;2023-11-19T17:48:24;3.78;;;2.45;;
75285;SDS011;63879;46.064;14.532;2023-11-19T17:50:50;3.05;;;2.35;;
75285;SDS011;63879;46.064;14.532;2023-11-19T17:53:20;4.45;;;2.45;;
75285;SDS011;63879;46.064;14.532;2023-11-19T17:55:46;6.75;;;2.70;;
75285;SDS011;63879;46.064;14.532;2023-11-19T17:58:11;5.15;;;4.10;;
75285;SDS011;63879;46.064;14.532;2023-11-19T18:00:37;5.82;;;4.40;;
75285;SDS011;63879;46.064;14.532;2023-11-19T18:03:02;7.65;;;5.22;;
75285;SDS011;63879;46.064;14.532;2023-11-19T18:05:29;8.48;;;6.03;;
75285;SDS011;63879;46.064;14.532;2023-11-19T18:07:55;13.88;;;6.20;;
75285;SDS011;63879;46.064;14.532;2023-11-19T18:10:21;12.57;;;7.60;;
75285;SDS011;63879;46.064;14.532;2023-11-19T18:12:47;11.30;;;5.65;;
75285;SDS011;63879;46.064;14.532;2023-11-19T18:15:13;11.48;;;6.38;;
75285;SDS011;63879;46.064;14.532;2023-11-19T18:17:40;12.35;;;7.88;;
75285;SDS011;63879;46.064;14.532;2023-11-19T18:20:09;19.20;;;7.35;;
75285;SDS011;63879;46.064;14.532;2023-11-19T18:22:42;12.60;;;6.10;;
75285;SDS011;63879;46.064;14.532;2023-11-19T18:25:10;17.10;;;7.40;;
75285;SDS011;63879;46.064;14.532;2023-11-19T18:27:39;13.48;;;8.10;;
75285;SDS011;63879;46.064;14.532;2023-11-19T18:30:08;9.02;;;6.22;;
75285;SDS011;63879;46.064;14.532;2023-11-19T18:32:38;12.00;;;7.60;;
75285;SDS011;63879;46.064;14.532;2023-11-19T18:35:06;10.52;;;6.10;;
75285;SDS011;63879;46.064;14.532;2023-11-19T18:37:36;11.40;;;7.05;;
75285;SDS011;63879;46.064;14.532;2023-11-19T18:40:03;13.80;;;7.55;;
75285;SDS011;63879;46.064;14.532;2023-11-19T18:42:30;9.40;;;4.75;;
75285;SDS011;63879;46.064;14.532;2023-11-19T18:44:59;7.57;;;5.70;;
75285;SDS011;63879;46.064;14.532;2023-11-19T18:47:24;12.43;;;6.45;;
75285;SDS011;63879;46.064;14.532;2023-11-19T18:49:50;14.90;;;5.13;;
75285;SDS011;63879;46.064;14.532;2023-11-19T18:52:16;10.82;;;6.18;;
75285;SDS011;63879;46.064;14.532;2023-11-19T18:54:42;11.25;;;7.15;;
75285;SDS011;63879;46.064;14.532;2023-11-19T18:57:08;12.23;;;7.00;;
75285;SDS011;63879;46.064;14.532;2023-11-19T18:59:34;10.27;;;6.22;;
75285;SDS011;63879;46.064;14.532;2023-11-19T19:01:59;11.57;;;5.30;;
75285;SDS011;63879;46.064;14.532;2023-11-19T19:04:25;10.60;;;5.68;;
75285;SDS011;63879;46.064;14.532;2023-11-19T19:06:53;10.70;;;6.65;;
75285;SDS011;63879;46.064;14.532;2023-11-19T19:09:19;11.30;;;7.85;;
75285;SDS011;63879;46.064;14.532;2023-11-19T19:11:50;9.00;;;6.30;;
75285;SDS011;63879;46.064;14.532;2023-11-19T19:14:16;9.05;;;6.03;;
75285;SDS011;63879;46.064;14.532;2023-11-19T19:16:41;8.73;;;5.95;;
75285;SDS011;63879;46.064;14.532;2023-11-19T19:19:06;9.93;;;5.97;;
75285;SDS011;63879;46.064;14.532;2023-11-19T19:21:32;8.52;;;6.40;;
75285;SDS011;63879;46.064;14.532;2023-11-19T19:24:01;14.95;;;6.55;;
75285;SDS011;63879;46.064;14.532;2023-11-19T19:26:33;8.77;;;5.63;;
75285;SDS011;63879;46.064;14.532;2023-11-19T19:28:59;15.18;;;7.55;;
75285;SDS011;63879;46.064;14.532;2023-11-19T19:31:24;11.25;;;7.40;;
75285;SDS011;63879;46.064;14.532;2023-11-19T19:33:50;15.02;;;7.47;;
75285;SDS011;63879;46.064;14.532;2023-11-19T19:36:22;15.43;;;7.07;;
75285;SDS011;63879;46.064;14.532;2023-11-19T19:38:54;12.57;;;6.53;;
75285;SDS011;63879;46.064;14.532;2023-11-19T19:41:20;12.52;;;7.53;;
75285;SDS011;63879;46.064;14.532;2023-11-19T19:43:45;10.13;;;6.72;;
75285;SDS011;63879;46.064;14.532;2023-11-19T19:46:11;13.68;;;9.60;;
75285;SDS011;63879;46.064;14.532;2023-11-19T19:48:36;14.15;;;6.00;;
75285;SDS011;63879;46.064;14.532;2023-11-19T19:51:02;8.98;;;7.18;;
75285;SDS011;63879;46.064;14.532;2023-11-19T19:53:29;11.15;;;6.43;;
75285;SDS011;63879;46.064;14.532;2023-11-19T19:55:55;9.27;;;6.75;;
75285;SDS011;63879;46.064;14.532;2023-11-19T19:58:20;9.73;;;6.50;;
75285;SDS011;63879;46.064;14.532;2023-11-19T20:00:47;7.68;;;5.63;;
75285;SDS011;63879;46.064;14.532;2023-11-19T20:03:12;12.73;;;6.97;;
75285;SDS011;63879;46.064;14.532;2023-11-19T20:05:38;10.35;;;6.35;;
75285;SDS011;63879;46.064;14.532;2023-11-19T20:08:04;10.80;;;6.25;;
75285;SDS011;63879;46.064;14.532;2023-11-19T20:10:31;8.18;;;5.45;;
75285;SDS011;63879;46.064;14.532;2023-11-19T20:12:57;14.30;;;6.25;;
75285;SDS011;63879;46.064;14.532;2023-11-19T20:15:26;12.35;;;7.80;;
75285;SDS011;63879;46.064;14.532;2023-11-19T20:17:51;9.25;;;6.00;;
75285;SDS011;63879;46.064;14.532;2023-11-19T20:20:17;10.68;;;5.88;;
75285;SDS011;63879;46.064;14.532;2023-11-19T20:22:42;9.45;;;6.43;;
75285;SDS011;63879;46.064;14.532;2023-11-19T20:25:08;10.35;;;6.85;;
75285;SDS011;63879;46.064;14.532;2023-11-19T20:27:34;9.68;;;6.20;;
75285;SDS011;63879;46.064;14.532;2023-11-19T20:30:00;9.43;;;7.25;;
75285;SDS011;63879;46.064;14.532;2023-11-19T20:32:26;14.48;;;9.40;;
75285;SDS011;63879;46.064;14.532;2023-11-19T20:34:51;9.82;;;6.60;;
75285;SDS011;63879;46.064;14.532;2023-11-19T20:37:17;12.32;;;11.10;;
75285;SDS011;63879;46.064;14.532;2023-11-19T20:39:43;14.13;;;6.60;;
75285;SDS011;63879;46.064;14.532;2023-11-19T20:42:08;11.52;;;6.72;;
75285;SDS011;63879;46.064;14.532;2023-11-19T20:44:34;9.20;;;6.60;;
75285;SDS011;63879;46.064;14.532;2023-11-19T20:46:59;10.02;;;6.88;;
75285;SDS011;63879;46.064;14.532;2023-11-19T20:49:29;9.60;;;6.28;;
75285;SDS011;63879;46.064;14.532;2023-11-19T20:51:54;9.00;;;5.80;;
75285;SDS011;63879;46.064;14.532;2023-11-19T20:54:20;8.57;;;6.90;;
75285;SDS011;63879;46.064;14.532;2023-11-19T20:56:45;12.63;;;6.47;;
75285;SDS011;63879;46.064;14.532;2023-11-19T20:59:11;13.00;;;9.82;;
75285;SDS011;63879;46.064;14.532;2023-11-19T21:01:41;12.57;;;7.55;;
75285;SDS011;63879;46.064;14.532;2023-11-19T21:04:06;15.55;;;8.05;;
75285;SDS011;63879;46.064;14.532;2023-11-19T21:06:32;17.95;;;8.10;;
75285;SDS011;63879;46.064;14.532;2023-11-19T21:08:57;10.88;;;5.70;;
75285;SDS011;63879;46.064;14.532;2023-11-19T21:11:23;14.23;;;10.10;;
75285;SDS011;63879;46.064;14.532;2023-11-19T21:13:49;9.52;;;6.57;;
75285;SDS011;63879;46.064;14.532;2023-11-19T21:16:14;9.23;;;6.88;;
75285;SDS011;63879;46.064;14.532;2023-11-19T21:18:39;8.85;;;6.32;;
75285;SDS011;63879;46.064;14.532;2023-11-19T21:21:05;10.27;;;6.85;;
75285;SDS011;63879;46.064;14.532;2023-11-19T21:23:31;13.50;;;7.00;;
75285;SDS011;63879;46.064;14.532;2023-11-19T21:25:57;12.27;;;5.93;;
75285;SDS011;63879;46.064;14.532;2023-11-19T21:28:24;17.88;;;8.55;;
75285;SDS011;63879;46.064;14.532;2023-11-19T21:30:55;11.43;;;6.60;;
75285;SDS011;63879;46.064;14.532;2023-11-19T21:33:24;10.30;;;5.80;;
75285;SDS011;63879;46.064;14.532;2023-11-19T21:35:53;8.32;;;6.38;;
75285;SDS011;63879;46.064;14.532;2023-11-19T21:38:19;10.43;;;6.80;;
75285;SDS011;63879;46.064;14.532;2023-11-19T21:40:48;9.98;;;5.63;;
75285;SDS011;63879;46.064;14.532;2023-11-19T21:43:16;9.25;;;6.75;;
75285;SDS011;63879;46.064;14.532;2023-11-19T21:45:45;10.15;;;6.13;;
75285;SDS011;63879;46.064;14.532;2023-11-19T21:48:11;10.68;;;6.95;;
75285;SDS011;63879;46.064;14.532;2023-11-19T21:50:40;10.45;;;6.82;;
75285;SDS011;63879;46.064;14.532;2023-11-19T21:53:07;8.63;;;5.90;;